»·PEaware :: UAL389 KGJT-KDEN

UAL389 :: KGJT-KDEN

FLIGHT INFORMATION

Flight Status: Arrived
Operator:
United Airlines
More flights by this operator :: More flights under this callsign
Pilot: Rick P. (13838)
Aircraft: BOEING 737-800
(B738)
More flights by this aircraft type
Origin: KGJT Walker
United States
Destination: KDEN Denver Intl
United States
More flights between these airports :: More routes between these airports
Route: +GRAND1 HAQHY CREDE3
File this flight plan on PilotEdge
Remarks: RMK / POWERED BY SIMBRIEF
Altitude:
(Current/Filed)
25,000ft
Speed:
(Current/Filed)
438kts
Departed: 12-Nov-17 01:21 PM
Arrived: 12-Nov-17 02:06 PM
Distance/Time
Traveled:
184nm/0:45
Distance/Time
To Go:
Arrived

Flight Plot

Page will automatically refresh every two minutes.

Flight plan parsing failed; only flown route is shown


Map Options




Map Legend


Flown Route
Filed Route
Departure Airport
Arrival Airport
Navaid (VOR, NDB)
Fix

Horizontal Profiles

Position Reports

Time Latitude Longitude Heading Altitude Ground
Speed
12-Nov-17 12:54 39.123344 -108.528761 215 4866ft 0kts
12-Nov-17 12:55 39.123344 -108.528761 215 4866ft 0kts
12-Nov-17 12:56 39.123344 -108.528761 215 4866ft 0kts
12-Nov-17 12:57 39.123344 -108.528761 215 4866ft 0kts
12-Nov-17 12:58 39.123344 -108.528761 215 4866ft 0kts
12-Nov-17 12:59 39.123344 -108.528761 215 4866ft 0kts
12-Nov-17 13:00 39.123344 -108.528761 215 4866ft 0kts
12-Nov-17 13:01 39.123344 -108.528761 215 4866ft 0kts
12-Nov-17 13:02 39.123344 -108.528761 215 4866ft 0kts
12-Nov-17 13:03 39.123344 -108.528761 215 4866ft 0kts
12-Nov-17 13:04 39.123344 -108.528761 215 4866ft 0kts
12-Nov-17 13:05 39.123344 -108.528761 215 4866ft 0kts
12-Nov-17 13:06 39.123344 -108.528761 215 4866ft 0kts
12-Nov-17 13:07 39.123344 -108.528761 215 4866ft 0kts
12-Nov-17 13:08 39.123344 -108.528761 215 4866ft 0kts
12-Nov-17 13:09 39.123344 -108.528761 215 4866ft 0kts
12-Nov-17 13:10 39.123344 -108.528761 215 4866ft 0kts
12-Nov-17 13:11 39.123344 -108.528761 215 4866ft 0kts
12-Nov-17 13:12 39.123344 -108.528761 215 4866ft 0kts
12-Nov-17 13:13 39.123344 -108.528761 215 4866ft 0kts
12-Nov-17 13:14 39.123344 -108.528761 215 4866ft 0kts
12-Nov-17 13:15 39.123344 -108.528761 215 4866ft 0kts
12-Nov-17 13:16 39.123182 -108.528729 136 4866ft 2kts
12-Nov-17 13:17 39.123158 -108.528675 115 4866ft 0kts
12-Nov-17 13:18 39.124385 -108.527470 103 4866ft 10kts
12-Nov-17 13:19 39.122075 -108.523287 125 4866ft 20kts
12-Nov-17 13:20 39.119053 -108.517812 125 4866ft 10kts
12-Nov-17 13:21 39.119921 -108.519442 301 4866ft 13kts
12-Nov-17 13:22 39.120412 -108.520262 351 4866ft 0kts
12-Nov-17 13:23 39.120412 -108.520262 351 4866ft 0kts
12-Nov-17 13:24 39.120412 -108.520262 351 4866ft 0kts
12-Nov-17 13:25 39.121039 -108.519889 47 4866ft 8kts
12-Nov-17 13:26 39.134172 -108.542906 305 5298ft 164kts
12-Nov-17 13:27 39.149309 -108.607433 280 7420ft 232kts
12-Nov-17 13:28 39.163810 -108.702083 280 10558ft 288kts
12-Nov-17 13:29 39.145418 -108.800913 210 13438ft 345kts
12-Nov-17 13:30 39.055612 -108.765080 140 14079ft 380kts
12-Nov-17 13:31 39.000644 -108.644584 112 17540ft 412kts
12-Nov-17 13:32 38.956236 -108.503803 114 20644ft 437kts
12-Nov-17 13:33 38.908275 -108.355401 114 23339ft 460kts
12-Nov-17 13:34 38.857182 -108.200863 115 25289ft 483kts
12-Nov-17 13:35 38.827142 -108.033889 85 25330ft 489kts
12-Nov-17 13:36 38.852930 -107.862686 75 25331ft 487kts
12-Nov-17 13:37 38.880190 -107.692524 76 25344ft 487kts
12-Nov-17 13:38 38.906863 -107.521527 76 25384ft 487kts
12-Nov-17 13:39 38.932793 -107.350768 76 25416ft 487kts
12-Nov-17 13:40 38.958231 -107.180221 76 25417ft 486kts
12-Nov-17 13:41 38.983458 -107.008977 76 25406ft 486kts
12-Nov-17 13:42 39.007301 -106.845378 76 25393ft 486kts
12-Nov-17 13:43 39.032076 -106.673468 76 25399ft 486kts
12-Nov-17 13:44 39.056680 -106.502169 76 25412ft 485kts
12-Nov-17 13:45 39.080780 -106.331599 77 25420ft 485kts
12-Nov-17 13:46 39.105805 -106.161314 71 25268ft 480kts
12-Nov-17 13:47 39.159767 -106.015326 53 23513ft 425kts
12-Nov-17 13:48 39.216679 -105.889420 55 21190ft 389kts
12-Nov-17 13:49 39.268339 -105.771699 55 18986ft 370kts
12-Nov-17 13:50 39.318917 -105.656175 56 17134ft 364kts
12-Nov-17 13:51 39.371190 -105.536743 56 16990ft 367kts
12-Nov-17 13:52 39.421509 -105.430356 49 16739ft 324kts
12-Nov-17 13:53 39.474392 -105.331410 50 16713ft 336kts
12-Nov-17 13:54 39.526615 -105.232032 51 16097ft 345kts
12-Nov-17 13:55 39.577942 -105.134191 52 14657ft 335kts
12-Nov-17 13:56 39.629169 -105.035892 52 13158ft 323kts
12-Nov-17 13:57 39.676647 -104.944405 53 12840ft 320kts
12-Nov-17 13:58 39.730852 -104.854450 24 12763ft 303kts
12-Nov-17 13:59 39.809016 -104.840460 356 11489ft 263kts
12-Nov-17 14:00 39.878970 -104.839565 357 10851ft 248kts
12-Nov-17 14:01 39.949056 -104.839334 356 10405ft 255kts
12-Nov-17 14:02 40.018032 -104.840074 357 9419ft 240kts
12-Nov-17 14:03 40.084745 -104.839975 359 8860ft 239kts
12-Nov-17 14:04 40.122467 -104.789817 97 8890ft 230kts
12-Nov-17 14:05 40.108344 -104.711131 141 8832ft 221kts
12-Nov-17 14:06 40.055630 -104.684402 181 8501ft 194kts
12-Nov-17 14:07 40.010855 -104.685466 180 7594ft 141kts
12-Nov-17 14:08 39.970989 -104.685951 181 6874ft 144kts
12-Nov-17 14:09 39.931922 -104.686406 180 6129ft 138kts
12-Nov-17 14:10 39.893691 -104.686849 180 5441ft 133kts
12-Nov-17 14:11 39.878828 -104.686911 168 5439ft 37kts
12-Nov-17 14:12 39.876358 -104.685605 151 5439ft 0kts
12-Nov-17 14:13 39.874898 -104.684937 177 5439ft 19kts
12-Nov-17 14:14 39.868327 -104.685008 178 5439ft 5kts
12-Nov-17 14:15 39.863106 -104.685062 182 5439ft 23kts
12-Nov-17 14:16 39.856360 -104.685151 182 5439ft 21kts
12-Nov-17 14:17 39.854041 -104.682195 12 5439ft 24kts
12-Nov-17 14:18 39.857390 -104.676319 89 5439ft 25kts
12-Nov-17 14:19 39.857465 -104.671496 19 5439ft 4kts
12-Nov-17 14:20 39.858140 -104.671493 359 5439ft 0kts
12-Nov-17 14:21 39.858140 -104.671493 359 5439ft 0kts
12-Nov-17 14:22 39.858140 -104.671493 359 5439ft 0kts
12-Nov-17 14:23 39.858140 -104.671493 359 5439ft 0kts
12-Nov-17 14:24 39.858140 -104.671493 359 5439ft 0kts

Navigation Log

Ident Type
Flight plan parsing failed, navigation log unavailable